Franklin, VA

2:05 AM EDT on September 04, 2015 (GMT -0400)
Aaron's Weather Service | | Change Station
CLOSE
Current Station
Personal Weather Station
Location: Franklin, VA
Elevation: 98 ft
Nearby Weather Stations

Elev 98 ft 36.70 °N, 76.96 °W | Updated 12 seconds ago

Clear
Clear
72.1 °F
Feels Like 72.1 °F
N
0.0
Wind Variable Wind from SE
Gusts 0.0 mph

Today
High -- | Low -- °F
--% Chance of Precip.
Yesterday
High -- | Low -- °F
Precip. -- in
6:41 AM 7:31 PM
Waning Gibbous, 63% visible
Pressure 29.90 in
Visibility 7.0 miles
Clouds Clear
Dew Point 72 °F
Humidity 100%
Rainfall 0.00 in
Snow Depth Not available.
UV 0 out of 12
Pollen 9.50 out of 12
Air Quality Not available.
Flu Activity Not available.
METAR KFKN 040555Z AUTO 00000KT 7SM CLR 22/21 A2990 RMK AO2 T02160212 10261 20212
Pressure 29.90 in
Visibility 7.0 miles
Clouds Clear
Dew Point 72 °F
Humidity 100%
Rainfall 0.00 in
Snow Depth Not available.
UV 0 out of 12
Pollen 9.50 out of 12
Air Quality Not available.
Flu Activity Not available.
METAR KFKN 040555Z AUTO 00000KT 7SM CLR 22/21 A2990 RMK AO2 T02160212 10261 20212

10-Day Weather Forecast

×

Almanac

Astronomy

Sep. 04, 2015 Rise Set
Actual Time
Civil Twilight
Nautical Twilight
Astronomical Twilight
Moon
Length of Visible Light
Length of Day
Tomorrow will be .
, % of the Moon is Illuminated

Today's Extremes

State Highs State Lows

Community

WunderPhotos

Upload Photos

1,852,132 photos uploaded!

WunderBlogs® & News

Nearby

Air Quality

  Air Quality AQ Index Pollutant
Not available.

Snow Depth

Station Depth Elevation

Earthquake Activity

City Distance Mag. Time & Date
Minimum magnitude displayed is 2.5.

Coastal Water Temperatures

Place Temperature

Stations

Nearby Weather Stations

Station Location Temp. Windchill Dew Point Humidity Wind Precip. Elev Updated Type